Norton, West Virginia
Current Conditions -  °F | °C
As of 5:06 AM on Wednesday 22 Oct 2014 (Local Time) from KEKN Reporting Station
Light Rain Light Rain  
Wind Chill: 39°   Ceiling: 500
Heat Index: 43°   Visibility: 7mi
Dew Point: 43°   Wind: 7mph
Humidity: 100%   Direction: 320°NW
Pressure: 30.03"   Gusts: NA
Location:  38.94°N, 79.96°W
Report Text: KEKN 220906Z AUTO 32006KT 7SM -RA OVC005 06/06 A3003 RMK AO2 P0000 T00610061 TSNO
Loading
Personal Weather Stations






























Interactive Weather Map
Tropical Storm Tracking
New forecast layout! Learn more

10-Day Weather Forecast

Advertisements
Track Severe Weather on mobile